Onemo, Virginia
Current Conditions -  °F | °C
As of 8:55 AM on Saturday 25 Oct 2014 (Local Time) from KW75 Reporting Station
Clear Clear  
Wind Chill: 55°   Ceiling: Unl
Heat Index: 55°   Visibility: 10mi
Dew Point: 46°   Wind: 3mph
Humidity: 72%   Direction: 320°NW
Pressure: 29.98"   Gusts: NA
Location:  37.4°N, 76.27°W
Report Text: KW75 251255Z AUTO 32003KT 10SM CLR 13/08 A2998 RMK AO1 T01250076
Loading
Personal Weather Stations






























Interactive Weather Map
Tropical Storm Tracking
New forecast layout! Learn more

10-Day Weather Forecast

Advertisements
Track Severe Weather on mobile